createdAt,value
2023-03-29T00:00:45.451Z,13.60
2023-03-29T00:03:18.135Z,14.50
2023-03-29T00:05:46.542Z,12.70
2023-03-29T00:08:14.918Z,11.30
2023-03-29T00:10:43.544Z,12.10
2023-03-29T00:13:11.607Z,12.00
2023-03-29T00:15:41.423Z,12.50
2023-03-29T00:18:09.467Z,8.10
2023-03-29T00:20:37.749Z,10.20
2023-03-29T00:23:06.875Z,9.00
2023-03-29T00:25:34.988Z,8.40
2023-03-29T00:28:03.048Z,9.20
2023-03-29T00:30:31.339Z,7.70
2023-03-29T00:32:59.526Z,9.50
2023-03-29T00:35:27.651Z,8.60
2023-03-29T00:37:57.880Z,9.00
2023-03-29T00:40:26.025Z,8.70
2023-03-29T00:42:56.350Z,7.90
2023-03-29T00:45:27.259Z,14.40
2023-03-29T00:47:57.404Z,10.00
2023-03-29T00:50:31.814Z,11.00
2023-03-29T00:53:14.771Z,10.60
2023-03-29T00:55:48.946Z,8.20
2023-03-29T00:58:21.244Z,10.30
2023-03-29T01:00:52.451Z,9.90
2023-03-29T01:03:25.111Z,8.70
2023-03-29T01:05:57.382Z,8.90
2023-03-29T01:08:32.176Z,7.80
2023-03-29T01:11:05.020Z,9.30
2023-03-29T01:13:41.753Z,8.00
2023-03-29T01:16:11.424Z,8.90
2023-03-29T01:18:39.829Z,8.70
2023-03-29T01:21:20.704Z,7.30
2023-03-29T01:24:06.850Z,8.80
2023-03-29T01:27:05.391Z,9.20
2023-03-29T01:29:41.108Z,7.80
2023-03-29T01:32:15.469Z,8.40
2023-03-29T01:34:43.532Z,8.60
2023-03-29T01:37:32.430Z,8.20
2023-03-29T01:40:00.833Z,6.60
2023-03-29T01:42:35.061Z,9.20
2023-03-29T01:45:13.379Z,8.20
2023-03-29T01:47:53.629Z,9.40
2023-03-29T01:50:33.769Z,7.90
2023-03-29T01:53:06.356Z,7.40
2023-03-29T01:55:38.636Z,7.00
2023-03-29T01:58:08.645Z,6.70
2023-03-29T02:00:37.737Z,7.80
2023-03-29T02:03:09.496Z,5.30
2023-03-29T02:05:39.542Z,5.20
2023-03-29T02:08:09.019Z,4.40
2023-03-29T02:10:37.704Z,5.30
2023-03-29T02:13:06.025Z,6.30
2023-03-29T02:15:34.876Z,5.80
2023-03-29T02:18:06.811Z,6.00
2023-03-29T02:23:09.125Z,4.40
2023-03-29T02:25:38.118Z,4.60
2023-03-29T02:28:07.019Z,5.30
2023-03-29T02:30:44.433Z,5.30
2023-03-29T02:33:15.874Z,5.60
2023-03-29T02:35:53.218Z,6.30
2023-03-29T02:38:25.699Z,5.50
2023-03-29T02:40:55.424Z,5.10
2023-03-29T02:43:25.859Z,5.20
2023-03-29T02:45:55.147Z,5.60
2023-03-29T02:48:25.540Z,5.20
2023-03-29T02:50:55.217Z,4.60
2023-03-29T02:53:26.525Z,5.70
2023-03-29T02:55:55.199Z,5.40
2023-03-29T02:58:26.631Z,4.60
2023-03-29T03:00:56.705Z,5.10
2023-03-29T03:03:25.731Z,5.50
2023-03-29T03:05:56.617Z,4.80
2023-03-29T03:08:24.812Z,5.10
2023-03-29T03:10:54.202Z,5.80
2023-03-29T03:13:22.367Z,4.50
2023-03-29T03:15:50.511Z,4.20
2023-03-29T03:18:18.844Z,4.80
2023-03-29T03:21:01.763Z,5.50
2023-03-29T03:23:30.635Z,5.00
2023-03-29T03:25:59.372Z,4.50
2023-03-29T03:28:27.561Z,5.20
2023-03-29T03:30:55.993Z,4.30
2023-03-29T03:33:24.181Z,4.80
2023-03-29T03:36:29.138Z,4.70
2023-03-29T03:38:57.796Z,4.60
2023-03-29T03:41:26.413Z,4.70
2023-03-29T03:43:54.966Z,4.20
2023-03-29T03:46:23.677Z,4.80
2023-03-29T03:48:52.291Z,4.30
2023-03-29T03:51:42.286Z,5.40
2023-03-29T03:54:10.554Z,5.40
2023-03-29T03:56:38.502Z,4.80
2023-03-29T03:59:12.423Z,4.70
2023-03-29T04:01:49.063Z,5.40
2023-03-29T04:04:23.534Z,5.00
2023-03-29T04:07:14.460Z,5.00
2023-03-29T04:10:20.949Z,4.80
2023-03-29T04:12:55.234Z,5.40
2023-03-29T04:15:23.236Z,6.30
2023-03-29T04:17:57.666Z,8.00
2023-03-29T04:20:30.966Z,12.30
2023-03-29T04:22:59.204Z,12.30
2023-03-29T04:25:28.069Z,12.70
2023-03-29T04:28:19.045Z,6.60
2023-03-29T04:30:52.814Z,6.20
2023-03-29T04:33:41.388Z,7.00
2023-03-29T04:36:09.619Z,6.00
2023-03-29T04:38:38.106Z,10.30
2023-03-29T04:41:06.579Z,9.50
2023-03-29T04:43:46.774Z,12.50
2023-03-29T04:46:28.737Z,12.50
2023-03-29T04:49:17.095Z,11.50
2023-03-29T04:51:48.196Z,10.00
2023-03-29T04:54:18.251Z,9.50
2023-03-29T04:57:05.989Z,10.60
2023-03-29T04:59:57.569Z,10.30
2023-03-29T05:02:51.694Z,11.10
2023-03-29T05:05:20.100Z,11.10
2023-03-29T05:07:48.746Z,12.70
2023-03-29T05:12:47.549Z,27.50
2023-03-29T05:15:15.727Z,11.00
2023-03-29T05:17:44.114Z,12.80
2023-03-29T05:20:13.246Z,10.30
2023-03-29T05:22:43.701Z,6.90
2023-03-29T05:25:17.123Z,6.20
2023-03-29T05:30:38.222Z,10.90
2023-03-29T05:33:16.600Z,10.20
2023-03-29T05:35:45.392Z,12.10
2023-03-29T05:38:13.827Z,9.50
2023-03-29T05:40:42.005Z,11.80
2023-03-29T05:43:29.045Z,10.60
2023-03-29T05:45:57.160Z,17.20
2023-03-29T05:48:25.975Z,29.60
2023-03-29T05:50:55.657Z,10.70
2023-03-29T05:53:25.032Z,15.30
2023-03-29T05:55:53.308Z,31.60
2023-03-29T05:58:23.042Z,11.10
2023-03-29T06:00:51.495Z,6.20
2023-03-29T06:03:51.395Z,10.70
2023-03-29T06:06:21.445Z,10.90
2023-03-29T06:08:50.715Z,8.20
2023-03-29T06:11:33.040Z,8.10
2023-03-29T06:14:13.934Z,7.10
2023-03-29T06:16:47.555Z,7.50
2023-03-29T06:19:16.128Z,6.60
2023-03-29T06:21:44.387Z,15.80
2023-03-29T06:24:14.168Z,15.30
2023-03-29T06:26:46.617Z,13.10
2023-03-29T06:29:15.745Z,9.40
2023-03-29T06:31:44.162Z,6.60
2023-03-29T06:34:22.614Z,8.20
2023-03-29T06:37:00.943Z,6.80
2023-03-29T06:39:29.094Z,10.30
2023-03-29T06:45:08.831Z,8.90
2023-03-29T06:47:40.773Z,7.60
2023-03-29T06:50:09.517Z,7.40
2023-03-29T06:52:58.576Z,6.70
2023-03-29T06:55:27.335Z,5.30
2023-03-29T06:57:55.746Z,5.60
2023-03-29T07:00:29.940Z,8.20
2023-03-29T07:03:10.663Z,6.80
2023-03-29T07:05:42.085Z,5.80
2023-03-29T07:08:14.362Z,7.10
2023-03-29T07:11:04.008Z,6.60
2023-03-29T07:13:42.686Z,5.20
2023-03-29T07:16:13.169Z,27.30
2023-03-29T07:19:01.640Z,9.50
2023-03-29T07:21:48.782Z,39.40
2023-03-29T07:24:17.631Z,5.60
2023-03-29T07:27:00.105Z,30.00
2023-03-29T07:29:34.464Z,11.30
2023-03-29T07:32:04.469Z,5.60
2023-03-29T07:34:52.625Z,6.00
2023-03-29T07:37:25.181Z,4.70
2023-03-29T07:39:53.739Z,4.30
2023-03-29T07:42:39.476Z,4.70
2023-03-29T07:45:09.739Z,4.80
2023-03-29T07:47:44.943Z,5.00
2023-03-29T07:50:17.535Z,5.20
2023-03-29T07:52:46.233Z,4.80
2023-03-29T07:55:15.962Z,5.20
2023-03-29T07:58:04.438Z,5.20
2023-03-29T08:00:34.231Z,5.40
2023-03-29T08:03:24.789Z,5.40
2023-03-29T08:05:56.189Z,5.30
2023-03-29T08:08:24.348Z,4.70
2023-03-29T08:10:57.253Z,4.80
2023-03-29T08:13:49.491Z,4.30
2023-03-29T08:16:35.862Z,4.30
2023-03-29T08:19:16.670Z,4.70
2023-03-29T08:22:03.993Z,4.90
2023-03-29T08:24:46.620Z,4.20
2023-03-29T08:27:22.579Z,4.10
2023-03-29T08:29:53.462Z,4.60
2023-03-29T08:32:41.808Z,4.10
2023-03-29T08:35:20.156Z,4.40
2023-03-29T08:38:08.455Z,4.20
2023-03-29T08:40:41.850Z,5.10
2023-03-29T08:43:39.259Z,4.40
2023-03-29T08:46:29.020Z,4.30
2023-03-29T08:49:17.122Z,4.40
2023-03-29T08:52:05.805Z,4.60
2023-03-29T08:54:43.798Z,4.30
2023-03-29T08:57:45.289Z,4.10
2023-03-29T09:00:24.935Z,3.70
2023-03-29T09:02:57.593Z,4.30
2023-03-29T09:05:44.681Z,3.80
2023-03-29T09:08:21.953Z,3.50
2023-03-29T09:11:09.526Z,4.00
2023-03-29T09:13:41.673Z,4.20
2023-03-29T09:16:36.373Z,5.10
2023-03-29T09:19:08.221Z,5.10
2023-03-29T09:21:52.351Z,5.90
2023-03-29T09:24:45.412Z,4.80
2023-03-29T09:27:32.491Z,5.50
2023-03-29T09:30:09.408Z,5.60
2023-03-29T09:33:11.269Z,4.90
2023-03-29T09:36:11.934Z,4.60
2023-03-29T09:38:44.200Z,3.70
2023-03-29T09:41:31.292Z,3.90
2023-03-29T09:44:05.678Z,3.70
2023-03-29T09:46:54.260Z,2.70
2023-03-29T09:49:27.619Z,5.00
2023-03-29T09:51:57.581Z,4.30
2023-03-29T09:54:26.147Z,4.20
2023-03-29T09:57:18.009Z,3.50
2023-03-29T09:59:49.616Z,3.50
2023-03-29T10:02:19.729Z,3.60
2023-03-29T10:04:53.590Z,3.50
2023-03-29T10:07:21.657Z,2.90
2023-03-29T10:09:56.113Z,3.10
2023-03-29T10:12:26.650Z,3.10
2023-03-29T10:14:55.937Z,3.80
2023-03-29T10:17:33.065Z,3.90
2023-03-29T10:20:06.429Z,4.00
2023-03-29T10:22:38.047Z,3.80
2023-03-29T10:25:12.826Z,5.10
2023-03-29T10:27:42.115Z,4.20
2023-03-29T10:30:28.620Z,5.70
2023-03-29T10:32:58.888Z,3.80
2023-03-29T10:35:35.384Z,5.30
2023-03-29T10:38:24.721Z,4.90
2023-03-29T10:40:53.395Z,4.90
2023-03-29T10:43:21.659Z,7.20
2023-03-29T10:45:50.953Z,10.90
2023-03-29T10:48:19.568Z,6.20
2023-03-29T10:50:57.470Z,5.10
2023-03-29T10:53:30.344Z,5.60
2023-03-29T10:56:01.561Z,10.50
2023-03-29T10:58:50.011Z,6.50
2023-03-29T11:01:20.173Z,5.10
2023-03-29T11:03:57.628Z,34.90
2023-03-29T11:06:37.589Z,6.60
2023-03-29T11:09:25.734Z,6.10
2023-03-29T11:12:04.447Z,6.10
2023-03-29T11:14:50.813Z,4.60
2023-03-29T11:17:41.945Z,3.80
2023-03-29T11:22:47.808Z,3.80
2023-03-29T11:25:19.203Z,3.70
2023-03-29T11:27:54.388Z,6.00
2023-03-29T11:30:25.363Z,6.70
2023-03-29T11:33:01.652Z,6.40
2023-03-29T11:35:34.767Z,5.70
2023-03-29T11:38:21.930Z,3.70
2023-03-29T11:41:13.672Z,5.10
2023-03-29T11:43:44.413Z,5.10
2023-03-29T11:46:17.015Z,5.80
2023-03-29T11:48:51.474Z,4.60
2023-03-29T11:51:23.084Z,3.80
2023-03-29T11:53:51.403Z,6.80
2023-03-29T11:56:23.949Z,8.90
2023-03-29T11:58:55.737Z,5.20
2023-03-29T12:01:44.335Z,4.50
2023-03-29T12:04:23.030Z,4.20
2023-03-29T12:07:06.769Z,4.10
2023-03-29T12:09:37.745Z,4.90
2023-03-29T12:14:49.479Z,4.50
2023-03-29T12:17:20.150Z,4.70
2023-03-29T12:20:07.153Z,4.60
2023-03-29T12:22:38.247Z,3.90
2023-03-29T12:25:09.191Z,4.90
2023-03-29T12:28:01.570Z,7.10
2023-03-29T12:30:38.650Z,4.40
2023-03-29T12:33:15.325Z,5.00
2023-03-29T12:36:02.749Z,5.20
2023-03-29T12:38:52.535Z,15.80
2023-03-29T12:41:49.261Z,10.40
2023-03-29T12:44:36.297Z,15.70
2023-03-29T12:47:27.880Z,8.30
2023-03-29T12:49:57.436Z,5.50
2023-03-29T12:52:33.688Z,5.70
2023-03-29T12:55:04.516Z,4.70
2023-03-29T12:57:40.098Z,5.40
2023-03-29T13:00:28.440Z,5.20
2023-03-29T13:03:17.640Z,6.60
2023-03-29T13:06:08.697Z,5.00
2023-03-29T13:08:57.048Z,6.60
2023-03-29T13:11:42.845Z,6.30
2023-03-29T13:14:16.965Z,9.40
2023-03-29T13:16:45.108Z,6.50
2023-03-29T13:19:32.124Z,6.10
2023-03-29T13:22:11.870Z,5.50
2023-03-29T13:25:01.360Z,5.90
2023-03-29T13:27:39.987Z,5.60
2023-03-29T13:30:17.935Z,7.40
2023-03-29T13:32:54.788Z,7.00
2023-03-29T13:35:29.884Z,5.00
2023-03-29T13:38:01.226Z,5.40
2023-03-29T13:40:44.364Z,5.50
2023-03-29T13:43:21.967Z,7.20
2023-03-29T13:45:59.450Z,7.00
2023-03-29T13:48:29.209Z,7.70
2023-03-29T13:51:02.190Z,6.40
2023-03-29T13:53:35.450Z,7.50
2023-03-29T13:56:05.822Z,8.90
2023-03-29T13:58:45.015Z,9.00
2023-03-29T14:01:40.978Z,6.70
2023-03-29T14:04:14.165Z,7.60
2023-03-29T14:06:50.075Z,7.20
2023-03-29T14:09:19.254Z,7.30
2023-03-29T14:11:56.942Z,7.20
2023-03-29T14:14:26.159Z,7.90
2023-03-29T14:16:57.474Z,7.40
2023-03-29T14:19:33.868Z,9.00
2023-03-29T14:22:02.525Z,7.20
2023-03-29T14:24:41.590Z,6.10
2023-03-29T14:27:15.279Z,7.40
2023-03-29T14:29:45.935Z,8.80
2023-03-29T14:32:16.565Z,8.40
2023-03-29T14:34:48.511Z,6.90
2023-03-29T14:37:18.812Z,8.00
2023-03-29T14:39:46.821Z,8.10
2023-03-29T14:42:19.809Z,8.70
2023-03-29T14:44:48.811Z,8.70
2023-03-29T14:47:21.622Z,9.10
2023-03-29T14:50:02.712Z,10.10
2023-03-29T15:01:23.799Z,9.50
2023-03-29T15:04:12.070Z,9.60
2023-03-29T15:06:41.749Z,11.10
2023-03-29T15:09:17.019Z,11.90
2023-03-29T15:11:51.294Z,10.50
2023-03-29T15:14:33.853Z,7.10
2023-03-29T15:17:22.073Z,7.30
2023-03-29T15:20:01.142Z,10.80
2023-03-29T15:22:33.518Z,7.70
2023-03-29T15:25:02.170Z,8.80
2023-03-29T15:27:41.685Z,7.20
2023-03-29T15:30:14.093Z,7.80
2023-03-29T15:32:42.630Z,34.30
2023-03-29T15:35:24.090Z,23.50
2023-03-29T15:37:53.548Z,27.60
2023-03-29T15:40:26.556Z,27.90
2023-03-29T15:42:55.271Z,15.00
2023-03-29T15:45:23.331Z,32.50
2023-03-29T15:47:51.891Z,76.30
2023-03-29T15:50:20.009Z,57.70
2023-03-29T15:52:48.392Z,43.80
2023-03-29T15:55:16.375Z,19.70
2023-03-29T15:57:46.646Z,11.30
2023-03-29T16:00:16.954Z,9.80
2023-03-29T16:02:45.059Z,8.10
2023-03-29T16:05:13.706Z,7.60
2023-03-29T16:07:41.939Z,8.80
2023-03-29T16:10:10.557Z,8.20
2023-03-29T16:12:39.303Z,8.30
2023-03-29T16:15:17.493Z,9.10
2023-03-29T16:17:45.685Z,8.00
2023-03-29T16:20:20.202Z,9.50
2023-03-29T16:22:49.055Z,25.30
2023-03-29T16:25:18.609Z,25.90
2023-03-29T16:27:47.067Z,33.20
2023-03-29T16:30:15.614Z,50.80
2023-03-29T16:32:43.854Z,29.80
2023-03-29T16:35:32.982Z,22.30
2023-03-29T16:38:01.018Z,19.50
2023-03-29T16:40:29.280Z,32.40
2023-03-29T16:42:57.308Z,22.10
2023-03-29T16:45:26.057Z,40.20
2023-03-29T16:47:54.735Z,49.50
2023-03-29T16:50:23.205Z,30.30
2023-03-29T16:52:54.259Z,44.20
2023-03-29T16:55:22.447Z,55.20
2023-03-29T16:57:51.130Z,25.00
2023-03-29T17:00:20.415Z,27.00
2023-03-29T17:02:49.826Z,53.20
2023-03-29T17:05:18.752Z,18.20
2023-03-29T17:07:47.063Z,45.10
2023-03-29T17:10:15.703Z,28.90
2023-03-29T17:12:43.692Z,31.20
2023-03-29T17:15:11.826Z,29.80
2023-03-29T17:17:40.321Z,36.40
2023-03-29T17:20:11.844Z,18.50
2023-03-29T17:22:40.844Z,14.10
2023-03-29T17:25:09.305Z,13.70
2023-03-29T17:27:38.124Z,14.20
2023-03-29T17:30:07.011Z,11.80
2023-03-29T17:32:35.833Z,10.50
2023-03-29T17:35:04.020Z,12.30
2023-03-29T17:37:32.043Z,13.30
2023-03-29T17:40:00.215Z,14.70
2023-03-29T17:42:28.621Z,15.10
2023-03-29T17:44:57.047Z,12.50
2023-03-29T17:47:25.090Z,22.90
2023-03-29T17:49:53.406Z,22.30
2023-03-29T17:52:21.753Z,22.20
2023-03-29T17:54:49.765Z,15.50
2023-03-29T17:57:18.153Z,19.70
2023-03-29T17:59:46.266Z,17.60
2023-03-29T18:02:18.382Z,24.70
2023-03-29T18:04:46.875Z,17.10
2023-03-29T18:07:15.568Z,18.00
2023-03-29T18:09:43.873Z,18.30
2023-03-29T18:12:12.622Z,17.60
2023-03-29T18:14:40.832Z,26.80
2023-03-29T18:17:16.558Z,12.50
2023-03-29T18:19:49.862Z,15.70
2023-03-29T18:22:20.877Z,18.80
2023-03-29T18:24:51.955Z,33.20
2023-03-29T18:27:20.554Z,32.90
2023-03-29T18:30:06.575Z,23.70
2023-03-29T18:32:39.574Z,27.40
2023-03-29T18:35:30.752Z,24.60
2023-03-29T18:38:05.295Z,46.40
2023-03-29T18:40:40.913Z,40.80
2023-03-29T18:43:09.273Z,32.20
2023-03-29T18:45:57.567Z,30.10
2023-03-29T18:48:49.325Z,20.30
2023-03-29T18:51:31.424Z,27.00
2023-03-29T18:54:22.524Z,15.00
2023-03-29T18:57:13.588Z,20.50
2023-03-29T18:59:41.992Z,20.90
2023-03-29T19:02:17.715Z,17.60
2023-03-29T19:04:50.005Z,11.00
2023-03-29T19:07:20.629Z,21.20
2023-03-29T19:09:51.784Z,16.50
2023-03-29T19:12:37.494Z,11.60
2023-03-29T19:15:08.366Z,9.60
2023-03-29T19:17:46.792Z,7.20
2023-03-29T19:23:41.100Z,7.80
2023-03-29T19:26:27.768Z,16.70
2023-03-29T19:29:00.520Z,11.70
2023-03-29T19:31:39.048Z,10.70
2023-03-29T19:34:09.747Z,8.50
2023-03-29T19:36:40.714Z,8.50
2023-03-29T19:39:34.619Z,9.90
2023-03-29T19:42:05.046Z,10.80
2023-03-29T19:44:38.358Z,15.60
2023-03-29T19:47:06.865Z,10.10
2023-03-29T19:49:36.794Z,10.80
2023-03-29T19:52:08.511Z,9.60
2023-03-29T19:54:44.260Z,12.70
2023-03-29T19:57:33.831Z,9.60
2023-03-29T20:00:14.929Z,9.50
2023-03-29T20:02:45.385Z,8.30
2023-03-29T20:05:13.976Z,8.70
2023-03-29T20:07:42.253Z,6.40
2023-03-29T20:10:11.150Z,9.00
2023-03-29T20:12:39.359Z,10.00
2023-03-29T20:15:07.928Z,10.80
2023-03-29T20:17:40.937Z,9.40
2023-03-29T20:20:23.922Z,9.40
2023-03-29T20:23:04.740Z,9.10
2023-03-29T20:25:37.919Z,10.80
2023-03-29T20:28:11.395Z,10.90
2023-03-29T20:30:40.279Z,8.80
2023-03-29T20:33:08.916Z,8.10
2023-03-29T20:35:44.552Z,8.70
2023-03-29T20:38:12.698Z,11.80
2023-03-29T20:40:41.923Z,11.00
2023-03-29T20:43:18.466Z,9.60
2023-03-29T20:45:53.917Z,8.60
2023-03-29T20:48:32.311Z,8.70
2023-03-29T20:51:03.217Z,9.80
2023-03-29T20:53:34.314Z,8.00
2023-03-29T20:56:06.614Z,10.60
2023-03-29T20:58:34.699Z,8.60
2023-03-29T21:01:14.545Z,9.00
2023-03-29T21:04:22.053Z,6.90
2023-03-29T21:07:13.810Z,7.10
2023-03-29T21:10:02.896Z,6.70
2023-03-29T21:15:27.719Z,6.80
2023-03-29T21:17:58.427Z,6.80
2023-03-29T21:20:31.853Z,6.70
2023-03-29T21:23:02.192Z,7.10
2023-03-29T21:25:50.313Z,7.30
2023-03-29T21:28:29.050Z,8.80
2023-03-29T21:31:03.907Z,6.80
2023-03-29T21:33:32.424Z,6.60
2023-03-29T21:36:09.961Z,8.00
2023-03-29T21:38:48.131Z,7.70
2023-03-29T21:41:19.376Z,8.20
2023-03-29T21:46:17.788Z,9.50
2023-03-29T21:49:00.689Z,10.20
2023-03-29T21:51:31.280Z,8.40
2023-03-29T21:54:12.040Z,8.20
2023-03-29T21:56:42.571Z,9.00
2023-03-29T21:59:11.321Z,7.20
2023-03-29T22:01:39.699Z,7.40
2023-03-29T22:04:11.087Z,7.50
2023-03-29T22:09:32.373Z,7.40
2023-03-29T22:12:04.675Z,7.10
2023-03-29T22:14:36.088Z,7.90
2023-03-29T22:17:09.830Z,7.20
2023-03-29T22:19:53.589Z,6.80
2023-03-29T22:22:25.798Z,8.10
2023-03-29T22:24:55.015Z,7.90
2023-03-29T22:27:23.636Z,8.00
2023-03-29T22:30:01.946Z,7.80
2023-03-29T22:32:50.660Z,7.20
2023-03-29T22:35:33.822Z,8.00
2023-03-29T22:38:05.155Z,8.20
2023-03-29T22:40:41.909Z,7.70
2023-03-29T22:43:12.963Z,8.10
2023-03-29T22:46:01.081Z,9.50
2023-03-29T22:48:45.790Z,8.20
2023-03-29T22:51:22.912Z,8.40
2023-03-29T22:53:51.680Z,8.10
2023-03-29T22:56:22.190Z,7.60
2023-03-29T22:58:53.938Z,7.30
2023-03-29T23:01:22.426Z,7.20
2023-03-29T23:03:56.859Z,8.20
2023-03-29T23:06:27.635Z,6.90
2023-03-29T23:08:58.688Z,7.90
2023-03-29T23:11:29.553Z,7.30
2023-03-29T23:13:57.785Z,6.90
2023-03-29T23:16:25.974Z,7.60
2023-03-29T23:19:28.039Z,6.60
2023-03-29T23:22:06.343Z,7.60
2023-03-29T23:24:36.933Z,5.70
2023-03-29T23:27:15.480Z,5.80
2023-03-29T23:29:48.992Z,7.70
2023-03-29T23:32:17.016Z,6.50
2023-03-29T23:34:45.636Z,6.70
2023-03-29T23:37:16.633Z,6.30
2023-03-29T23:39:44.601Z,7.10
2023-03-29T23:42:18.401Z,11.60
2023-03-29T23:44:46.351Z,6.70
2023-03-29T23:47:22.063Z,9.30
2023-03-29T23:49:53.417Z,7.90
2023-03-29T23:52:34.740Z,6.20
2023-03-29T23:57:35.272Z,7.10
